Time;durP1;ratioP1;P1;durP2;ratioP2;P2;SDS_P1;SDS_P2;PMS_P1;PMS_P2;Temp;Humidity;BMP_temperature;BMP_pressure;BME280_temperature;BME280_humidity;BME280_pressure;Samples;Min_cycle;Max_cycle;Signal;HPM_P1;HPM_P2
2023/07/15 00:02:03;;;;;;;7.65;4.57;;;;;;;;;;5073684;28;20025;-73
2023/07/15 00:04:29;;;;;;;11.43;4.95;;;;;;;;;;5071920;28;20039;-72
2023/07/15 00:06:55;;;;;;;17.55;5.40;;;;;;;;;;5072166;28;20036;-73
2023/07/15 00:09:27;;;;;;;12.05;4.90;;;;;;;;;;5072723;28;20020;-73
2023/07/15 00:11:53;;;;;;;6.93;4.82;;;;;;;;;;5072247;28;20024;-72
2023/07/15 00:14:22;;;;;;;9.50;4.72;;;;;;;;;;5072409;28;20027;-73
2023/07/15 00:16:51;;;;;;;10.18;4.78;;;;;;;;;;5072325;28;20020;-73
2023/07/15 00:19:19;;;;;;;9.40;4.55;;;;;;;;;;5072769;28;20270;-73
2023/07/15 00:21:45;;;;;;;8.88;4.78;;;;;;;;;;5072516;28;20049;-73
2023/07/15 00:24:11;;;;;;;10.93;4.97;;;;;;;;;;5073208;28;20029;-74
2023/07/15 00:26:37;;;;;;;12.07;4.75;;;;;;;;;;5073964;28;20035;-74
2023/07/15 00:29:04;;;;;;;7.28;4.57;;;;;;;;;;5072441;28;20398;-72
2023/07/15 00:31:31;;;;;;;13.30;4.70;;;;;;;;;;5071941;28;20536;-74
2023/07/15 00:33:57;;;;;;;11.50;4.53;;;;;;;;;;5072694;28;20032;-74
2023/07/15 00:36:23;;;;;;;11.90;4.80;;;;;;;;;;5074858;28;20070;-71
2023/07/15 00:38:49;;;;;;;9.85;4.63;;;;;;;;;;5071934;28;20020;-73
2023/07/15 00:41:15;;;;;;;12.75;4.95;;;;;;;;;;5074083;28;20027;-71
2023/07/15 00:46:21;;;;;;;8.48;4.85;;;;;;;;;;5072289;28;20482;-73
2023/07/15 00:49:02;;;;;;;8.75;5.47;;;;;;;;;;5070832;28;20112;-74
2023/07/15 00:51:29;;;;;;;7.63;4.38;;;;;;;;;;5071859;28;20431;-73
2023/07/15 00:53:55;;;;;;;9.85;4.88;;;;;;;;;;5071666;28;20099;-72
2023/07/15 00:56:26;;;;;;;10.55;4.55;;;;;;;;;;5071766;28;20093;-72
2023/07/15 00:58:52;;;;;;;9.30;5.07;;;;;;;;;;5071256;28;20031;-73
2023/07/15 01:01:19;;;;;;;7.93;4.55;;;;;;;;;;5072722;28;20340;-75
2023/07/15 01:03:45;;;;;;;12.48;4.95;;;;;;;;;;5073951;28;20023;-74
2023/07/15 01:06:14;;;;;;;9.50;4.22;;;;;;;;;;5072396;28;20024;-74
2023/07/15 01:08:40;;;;;;;8.13;4.25;;;;;;;;;;5070876;28;20025;-73
2023/07/15 01:11:06;;;;;;;8.82;4.70;;;;;;;;;;5072009;28;20123;-73
2023/07/15 01:13:33;;;;;;;9.82;4.63;;;;;;;;;;5071878;28;20035;-73
2023/07/15 01:15:59;;;;;;;11.57;4.63;;;;;;;;;;5072048;28;20032;-74
2023/07/15 01:18:25;;;;;;;9.30;5.10;;;;;;;;;;5072155;28;20467;-72
2023/07/15 01:20:51;;;;;;;11.00;5.18;;;;;;;;;;5071228;28;20021;-74
2023/07/15 01:23:17;;;;;;;8.10;4.53;;;;;;;;;;5072381;28;20515;-73
2023/07/15 01:25:43;;;;;;;12.23;4.35;;;;;;;;;;5071997;28;20583;-73
2023/07/15 01:28:09;;;;;;;11.60;5.35;;;;;;;;;;5071994;28;20028;-72
2023/07/15 01:30:35;;;;;;;10.52;4.80;;;;;;;;;;5071846;28;20541;-74
2023/07/15 01:33:01;;;;;;;11.80;4.80;;;;;;;;;;5071611;28;20111;-71
2023/07/15 01:35:27;;;;;;;11.93;5.20;;;;;;;;;;5071803;28;20370;-73
2023/07/15 01:37:53;;;;;;;8.70;4.95;;;;;;;;;;5072279;28;20149;-74
2023/07/15 01:40:19;;;;;;;9.05;4.78;;;;;;;;;;5071725;28;20029;-72
2023/07/15 01:42:45;;;;;;;10.85;5.13;;;;;;;;;;5071545;28;20098;-72
2023/07/15 01:45:11;;;;;;;15.48;4.90;;;;;;;;;;5072070;28;20381;-73
2023/07/15 01:47:37;;;;;;;16.95;4.80;;;;;;;;;;5071778;28;20145;-74
2023/07/15 01:50:06;;;;;;;13.43;4.78;;;;;;;;;;5071800;28;20028;-75
2023/07/15 01:52:32;;;;;;;12.27;4.80;;;;;;;;;;5071359;28;20033;-74
2023/07/15 01:54:58;;;;;;;11.07;4.50;;;;;;;;;;5072320;28;20459;-73
2023/07/15 01:57:28;;;;;;;11.63;4.93;;;;;;;;;;5071584;28;20016;-73
2023/07/15 01:59:57;;;;;;;10.63;4.70;;;;;;;;;;5072682;28;20107;-72
2023/07/15 02:02:26;;;;;;;16.20;5.22;;;;;;;;;;5071490;28;20493;-73
2023/07/15 02:04:52;;;;;;;12.55;4.45;;;;;;;;;;5071639;28;20087;-75
2023/07/15 02:07:18;;;;;;;15.57;4.88;;;;;;;;;;5071543;28;20021;-74
2023/07/15 02:09:44;;;;;;;11.60;4.60;;;;;;;;;;5071556;28;20526;-73
2023/07/15 02:12:10;;;;;;;8.32;4.18;;;;;;;;;;5073726;28;20094;-73
2023/07/15 02:14:36;;;;;;;10.88;4.63;;;;;;;;;;5075571;28;20131;-72
2023/07/15 02:17:03;;;;;;;7.78;4.53;;;;;;;;;;5076039;28;20020;-74
2023/07/15 02:19:30;;;;;;;12.70;4.82;;;;;;;;;;5076890;28;20498;-72
2023/07/15 02:21:57;;;;;;;8.45;4.55;;;;;;;;;;5076344;28;20081;-75
2023/07/15 02:24:23;;;;;;;9.25;4.20;;;;;;;;;;5076098;28;20028;-73
2023/07/15 02:26:49;;;;;;;10.02;4.75;;;;;;;;;;5075186;28;20043;-73
2023/07/15 02:29:15;;;;;;;6.63;4.30;;;;;;;;;;5075251;28;20040;-73
2023/07/15 02:31:42;;;;;;;12.85;5.05;;;;;;;;;;5075142;28;20107;-73
2023/07/15 02:34:08;;;;;;;11.90;4.97;;;;;;;;;;5074967;28;20566;-72
2023/07/15 02:36:35;;;;;;;9.23;4.63;;;;;;;;;;5075368;28;20032;-73
2023/07/15 02:39:01;;;;;;;12.35;4.90;;;;;;;;;;5075194;28;20029;-74
2023/07/15 02:41:27;;;;;;;11.57;5.00;;;;;;;;;;5075236;28;20096;-73
2023/07/15 02:43:54;;;;;;;9.77;5.00;;;;;;;;;;5072553;28;20071;-75
2023/07/15 02:46:20;;;;;;;12.27;4.55;;;;;;;;;;5074619;28;20078;-74
2023/07/15 02:48:46;;;;;;;12.57;5.57;;;;;;;;;;5074629;28;20020;-74
2023/07/15 02:51:12;;;;;;;9.27;4.60;;;;;;;;;;5074686;28;20521;-75
2023/07/15 02:53:39;;;;;;;9.38;5.90;;;;;;;;;;5073921;28;20020;-75
2023/07/15 02:56:06;;;;;;;8.27;4.90;;;;;;;;;;5075103;28;20035;-75
2023/07/15 02:58:32;;;;;;;8.85;4.97;;;;;;;;;;5076813;28;20025;-74
2023/07/15 03:00:58;;;;;;;9.57;5.10;;;;;;;;;;5074486;28;20159;-75
2023/07/15 03:03:25;;;;;;;11.10;4.60;;;;;;;;;;5074017;28;20074;-75
2023/07/15 03:05:54;;;;;;;11.43;4.82;;;;;;;;;;5074967;28;20486;-74
2023/07/15 03:08:20;;;;;;;9.25;4.75;;;;;;;;;;5075325;28;20044;-74
2023/07/15 03:10:46;;;;;;;8.77;4.93;;;;;;;;;;5075656;28;20043;-75
2023/07/15 03:13:12;;;;;;;9.35;4.55;;;;;;;;;;5077881;28;20028;-82
2023/07/15 03:15:40;;;;;;;8.88;4.50;;;;;;;;;;5074135;28;20063;-80
2023/07/15 03:18:06;;;;;;;11.30;5.00;;;;;;;;;;5074837;28;20028;-74
2023/07/15 03:20:32;;;;;;;10.35;4.50;;;;;;;;;;5077460;28;20020;-73
2023/07/15 03:22:58;;;;;;;10.25;4.53;;;;;;;;;;5077071;28;20032;-74
2023/07/15 03:25:24;;;;;;;10.77;4.57;;;;;;;;;;5074636;28;20328;-74
2023/07/15 03:27:51;;;;;;;11.27;4.63;;;;;;;;;;5076395;28;20055;-73
2023/07/15 03:30:17;;;;;;;12.85;4.45;;;;;;;;;;5076304;28;20054;-75
2023/07/15 03:32:44;;;;;;;9.30;4.57;;;;;;;;;;5073773;28;20059;-74
2023/07/15 03:35:11;;;;;;;10.82;4.45;;;;;;;;;;5074055;28;20027;-74
2023/07/15 03:37:38;;;;;;;9.43;4.40;;;;;;;;;;5073913;28;20089;-74
2023/07/15 03:40:08;;;;;;;10.13;4.88;;;;;;;;;;5073994;28;20169;-74
2023/07/15 03:42:35;;;;;;;13.02;4.70;;;;;;;;;;5073412;28;20481;-75
2023/07/15 03:45:01;;;;;;;13.30;4.60;;;;;;;;;;5073762;28;20496;-73
2023/07/15 03:47:27;;;;;;;11.50;4.65;;;;;;;;;;5073941;28;20024;-73
2023/07/15 03:49:53;;;;;;;11.55;5.00;;;;;;;;;;5074311;28;20020;-73
2023/07/15 03:52:19;;;;;;;8.05;3.97;;;;;;;;;;5076503;28;20086;-74
2023/07/15 03:54:45;;;;;;;7.68;4.15;;;;;;;;;;5074814;28;20070;-73
2023/07/15 03:57:11;;;;;;;12.57;4.25;;;;;;;;;;5073962;28;20059;-73
2023/07/15 03:59:38;;;;;;;9.75;5.00;;;;;;;;;;5074431;28;20369;-74
2023/07/15 04:02:04;;;;;;;11.23;4.53;;;;;;;;;;5074375;28;20021;-73
2023/07/15 04:04:30;;;;;;;11.52;5.00;;;;;;;;;;5075506;28;20094;-75
2023/07/15 04:06:57;;;;;;;16.30;5.50;;;;;;;;;;5075009;28;20031;-76
2023/07/15 04:09:23;;;;;;;14.95;4.88;;;;;;;;;;5079983;28;20051;-76
2023/07/15 04:11:50;;;;;;;13.20;4.88;;;;;;;;;;5076194;28;20040;-74
2023/07/15 04:14:16;;;;;;;12.05;4.95;;;;;;;;;;5073536;28;20029;-73
2023/07/15 04:16:43;;;;;;;18.27;4.90;;;;;;;;;;5073124;28;20078;-74
2023/07/15 04:19:09;;;;;;;13.38;4.68;;;;;;;;;;5073220;28;20078;-75
2023/07/15 04:21:35;;;;;;;11.05;4.60;;;;;;;;;;5073074;28;20025;-74
2023/07/15 04:24:01;;;;;;;12.63;4.93;;;;;;;;;;5072860;28;20536;-74
2023/07/15 04:26:27;;;;;;;11.65;5.10;;;;;;;;;;5077475;28;20036;-74
2023/07/15 04:28:54;;;;;;;12.57;4.85;;;;;;;;;;5073259;28;20113;-77
2023/07/15 04:31:20;;;;;;;10.60;5.18;;;;;;;;;;5072875;28;20490;-74
2023/07/15 04:33:47;;;;;;;8.07;4.30;;;;;;;;;;5072109;28;20033;-74
2023/07/15 04:36:13;;;;;;;10.38;4.63;;;;;;;;;;5076415;28;20029;-76
2023/07/15 04:38:39;;;;;;;10.20;4.28;;;;;;;;;;5074862;28;20025;-75
2023/07/15 04:41:05;;;;;;;13.57;5.00;;;;;;;;;;5075225;28;20055;-74
2023/07/15 04:43:32;;;;;;;13.10;5.10;;;;;;;;;;5075735;28;20025;-76
2023/07/15 04:45:58;;;;;;;9.95;4.35;;;;;;;;;;5075261;28;20029;-75
2023/07/15 04:48:24;;;;;;;9.90;4.78;;;;;;;;;;5072877;28;20115;-74
2023/07/15 04:50:50;;;;;;;12.77;5.22;;;;;;;;;;5073953;28;20056;-74
2023/07/15 04:53:16;;;;;;;11.27;5.10;;;;;;;;;;5078609;28;20043;-75
2023/07/15 04:55:43;;;;;;;11.43;4.72;;;;;;;;;;5072624;28;20064;-76
2023/07/15 04:58:11;;;;;;;15.35;5.47;;;;;;;;;;5081043;28;20043;-76
2023/07/15 05:00:37;;;;;;;10.95;4.72;;;;;;;;;;5073706;28;20024;-75
2023/07/15 05:03:07;;;;;;;14.05;4.65;;;;;;;;;;5072774;28;20082;-76
2023/07/15 05:05:33;;;;;;;10.60;4.65;;;;;;;;;;5078141;28;20028;-76
2023/07/15 05:08:12;;;;;;;12.60;5.10;;;;;;;;;;5076808;28;20116;-76
2023/07/15 05:10:39;;;;;;;9.38;5.28;;;;;;;;;;5073290;28;20063;-76
2023/07/15 05:13:05;;;;;;;10.32;4.88;;;;;;;;;;5072935;28;20036;-75
2023/07/15 05:15:32;;;;;;;8.15;4.55;;;;;;;;;;5074285;28;20383;-74
2023/07/15 05:17:58;;;;;;;9.02;4.40;;;;;;;;;;5072132;28;20112;-73
2023/07/15 05:20:24;;;;;;;10.30;4.68;;;;;;;;;;5073038;28;20040;-73
2023/07/15 05:22:51;;;;;;;16.10;4.57;;;;;;;;;;5074287;28;20056;-72
2023/07/15 05:25:17;;;;;;;16.27;5.07;;;;;;;;;;5071160;28;20418;-74
2023/07/15 05:27:43;;;;;;;10.95;4.75;;;;;;;;;;5072076;28;20024;-75
2023/07/15 05:30:09;;;;;;;8.95;4.45;;;;;;;;;;5073177;28;20503;-74
2023/07/15 05:32:35;;;;;;;9.43;4.45;;;;;;;;;;5072600;28;20028;-74
2023/07/15 05:35:02;;;;;;;15.35;4.32;;;;;;;;;;5071851;28;20034;-73
2023/07/15 05:37:27;;;;;;;12.65;6.50;;;;;;;;;;5074860;28;20047;-72
2023/07/15 05:39:53;;;;;;;10.77;4.43;;;;;;;;;;5071468;28;20470;-73
2023/07/15 05:42:20;;;;;;;15.90;5.20;;;;;;;;;;5070744;28;20028;-73
2023/07/15 05:44:46;;;;;;;10.27;4.57;;;;;;;;;;5073780;28;20029;-73
2023/07/15 05:47:12;;;;;;;14.57;4.50;;;;;;;;;;5070935;28;20508;-72
2023/07/15 05:49:38;;;;;;;10.60;4.32;;;;;;;;;;5072001;28;20016;-72
2023/07/15 05:52:04;;;;;;;12.30;4.75;;;;;;;;;;5073754;28;20039;-73
2023/07/15 05:54:30;;;;;;;13.38;4.88;;;;;;;;;;5090950;28;20035;-74
2023/07/15 05:56:56;;;;;;;19.02;4.72;;;;;;;;;;5071813;28;20035;-73
2023/07/15 05:59:25;;;;;;;15.35;6.05;;;;;;;;;;5071939;28;20092;-73
2023/07/15 06:01:51;;;;;;;16.80;4.90;;;;;;;;;;5069842;28;20373;-72
2023/07/15 06:04:17;;;;;;;13.82;4.47;;;;;;;;;;5074609;28;20099;-73
2023/07/15 06:06:43;;;;;;;13.85;4.93;;;;;;;;;;5071792;28;20020;-73
2023/07/15 06:09:09;;;;;;;10.40;4.57;;;;;;;;;;5071457;28;20033;-72
2023/07/15 06:11:35;;;;;;;16.63;5.25;;;;;;;;;;5070925;28;20032;-73
2023/07/15 06:14:03;;;;;;;13.65;4.47;;;;;;;;;;5079399;28;20029;-74
2023/07/15 06:16:29;;;;;;;11.50;4.57;;;;;;;;;;5070652;28;20025;-73
2023/07/15 06:18:55;;;;;;;14.43;5.38;;;;;;;;;;5071955;28;20078;-73
2023/07/15 06:21:21;;;;;;;13.80;4.53;;;;;;;;;;5071282;28;20103;-74
2023/07/15 06:23:48;;;;;;;7.97;3.80;;;;;;;;;;5073128;28;20017;-74
2023/07/15 06:26:14;;;;;;;9.82;4.25;;;;;;;;;;5071410;28;20140;-73
2023/07/15 06:28:40;;;;;;;12.70;4.10;;;;;;;;;;5071874;28;20465;-75
2023/07/15 06:31:06;;;;;;;11.63;4.13;;;;;;;;;;5075105;28;20070;-73
2023/07/15 06:33:34;;;;;;;13.30;4.30;;;;;;;;;;5070635;28;20547;-74
2023/07/15 06:36:00;;;;;;;15.63;4.45;;;;;;;;;;5072710;28;20040;-74
2023/07/15 06:38:27;;;;;;;9.93;4.40;;;;;;;;;;5072680;28;20025;-73
2023/07/15 06:40:53;;;;;;;8.80;4.03;;;;;;;;;;5072294;28;20020;-74
2023/07/15 06:43:19;;;;;;;8.48;3.97;;;;;;;;;;5070202;28;20031;-72
2023/07/15 06:45:45;;;;;;;14.27;4.60;;;;;;;;;;5070917;28;20396;-73
2023/07/15 06:48:12;;;;;;;7.57;3.72;;;;;;;;;;5071893;28;20020;-73
2023/07/15 06:50:38;;;;;;;10.50;4.50;;;;;;;;;;5075156;28;20020;-73
2023/07/15 06:53:04;;;;;;;10.80;3.97;;;;;;;;;;5071231;28;20029;-73
2023/07/15 06:55:30;;;;;;;10.77;4.40;;;;;;;;;;5070790;28;20086;-75
2023/07/15 06:57:56;;;;;;;10.90;4.13;;;;;;;;;;5072947;28;20024;-74
2023/07/15 07:00:22;;;;;;;7.53;4.35;;;;;;;;;;5075422;28;20082;-73
2023/07/15 07:02:48;;;;;;;11.15;4.03;;;;;;;;;;5073073;28;20077;-73
2023/07/15 07:05:15;;;;;;;13.52;4.75;;;;;;;;;;5074539;28;20090;-74
2023/07/15 07:07:42;;;;;;;17.17;3.97;;;;;;;;;;5074434;28;20534;-74
2023/07/15 07:10:08;;;;;;;8.82;4.55;;;;;;;;;;5076464;28;20035;-74
2023/07/15 07:12:34;;;;;;;9.68;3.72;;;;;;;;;;5076810;28;20145;-74
2023/07/15 07:15:00;;;;;;;6.93;3.80;;;;;;;;;;5076649;28;20091;-75
2023/07/15 07:17:28;;;;;;;15.10;3.90;;;;;;;;;;5076853;28;20474;-74
2023/07/15 07:19:54;;;;;;;11.27;3.90;;;;;;;;;;5074914;28;20078;-72
2023/07/15 07:22:20;;;;;;;7.55;3.70;;;;;;;;;;5074151;28;20447;-74
2023/07/15 07:24:47;;;;;;;12.27;4.40;;;;;;;;;;5074325;28;20031;-74
2023/07/15 07:27:13;;;;;;;9.10;3.95;;;;;;;;;;5074126;28;20118;-75
2023/07/15 07:29:39;;;;;;;10.30;4.22;;;;;;;;;;5073881;28;20021;-72
2023/07/15 07:32:06;;;;;;;7.45;3.92;;;;;;;;;;5074547;28;20032;-72
2023/07/15 07:34:33;;;;;;;8.38;3.50;;;;;;;;;;5075402;28;20032;-73
2023/07/15 07:36:59;;;;;;;10.02;3.90;;;;;;;;;;5074561;28;20036;-73
2023/07/15 07:39:25;;;;;;;9.70;4.05;;;;;;;;;;5073900;28;20046;-72
2023/07/15 07:41:51;;;;;;;10.15;3.63;;;;;;;;;;5075939;28;20474;-75
2023/07/15 07:44:17;;;;;;;51.70;4.65;;;;;;;;;;5077770;28;20470;-72
2023/07/15 07:46:43;;;;;;;9.77;3.53;;;;;;;;;;5073434;28;20040;-73
2023/07/15 07:49:10;;;;;;;8.60;3.30;;;;;;;;;;5070341;28;20028;-73
2023/07/15 07:51:36;;;;;;;8.70;4.28;;;;;;;;;;5055955;28;20151;-73
2023/07/15 07:54:02;;;;;;;9.48;4.05;;;;;;;;;;5055318;28;20384;-72
2023/07/15 07:56:28;;;;;;;11.90;3.55;;;;;;;;;;5058829;28;20033;-72
2023/07/15 07:58:57;;;;;;;8.60;3.78;;;;;;;;;;5068959;28;20053;-76
2023/07/15 08:01:23;;;;;;;9.85;3.85;;;;;;;;;;5062859;28;20047;-74
2023/07/15 08:03:49;;;;;;;11.30;3.60;;;;;;;;;;5061927;28;20470;-73
2023/07/15 08:06:15;;;;;;;7.88;4.20;;;;;;;;;;5058467;28;20028;-74
2023/07/15 08:08:42;;;;;;;12.63;4.00;;;;;;;;;;5055431;28;20039;-74
2023/07/15 08:11:08;;;;;;;9.63;3.53;;;;;;;;;;5056893;28;20021;-74
2023/07/15 08:13:34;;;;;;;6.45;3.58;;;;;;;;;;5061342;28;20390;-73
2023/07/15 08:16:00;;;;;;;12.13;4.10;;;;;;;;;;5055513;28;20048;-74
2023/07/15 08:18:26;;;;;;;10.13;3.70;;;;;;;;;;5066399;28;20044;-73
2023/07/15 08:20:52;;;;;;;9.27;4.75;;;;;;;;;;5066278;28;20021;-74
2023/07/15 08:23:20;;;;;;;10.02;3.45;;;;;;;;;;5065880;28;20069;-73
2023/07/15 08:25:46;;;;;;;10.73;3.45;;;;;;;;;;5066264;28;20033;-73
2023/07/15 08:28:12;;;;;;;8.82;3.80;;;;;;;;;;5064414;28;20092;-73
2023/07/15 08:30:38;;;;;;;8.18;3.70;;;;;;;;;;5064121;28;20085;-74
2023/07/15 08:33:04;;;;;;;13.75;4.63;;;;;;;;;;5064510;28;20501;-74
2023/07/15 08:35:31;;;;;;;16.55;3.95;;;;;;;;;;5061926;28;20414;-73
2023/07/15 08:37:57;;;;;;;10.00;3.90;;;;;;;;;;5066103;28;20027;-75
2023/07/15 08:40:24;;;;;;;9.27;3.15;;;;;;;;;;5060320;28;20021;-73
2023/07/15 08:42:50;;;;;;;9.07;3.72;;;;;;;;;;5055827;28;20051;-73
2023/07/15 08:45:17;;;;;;;11.60;2.50;;;;;;;;;;5062090;28;20446;-73
2023/07/15 08:47:44;;;;;;;17.35;3.83;;;;;;;;;;5051976;28;20031;-72
2023/07/15 08:50:17;;;;;;;9.52;3.13;;;;;;;;;;5054086;28;20396;-73
2023/07/15 08:52:43;;;;;;;6.88;3.15;;;;;;;;;;5071551;28;20051;-72
2023/07/15 08:55:10;;;;;;;13.85;2.70;;;;;;;;;;5071914;28;20078;-74
2023/07/15 08:57:36;;;;;;;10.93;2.88;;;;;;;;;;5072196;28;20072;-74
2023/07/15 09:00:09;;;;;;;7.10;2.80;;;;;;;;;;5072008;28;20040;-72
2023/07/15 09:02:38;;;;;;;7.85;3.30;;;;;;;;;;5070223;28;20547;-73
2023/07/15 09:05:05;;;;;;;9.23;2.90;;;;;;;;;;5070856;28;20100;-74
2023/07/15 09:07:31;;;;;;;15.02;3.35;;;;;;;;;;5072109;28;20103;-76
2023/07/15 09:10:05;;;;;;;8.45;3.13;;;;;;;;;;5072278;28;20056;-75
2023/07/15 09:12:31;;;;;;;13.68;3.17;;;;;;;;;;5071456;28;20037;-75
2023/07/15 09:14:57;;;;;;;13.02;3.38;;;;;;;;;;5071613;28;20059;-75
2023/07/15 09:17:26;;;;;;;8.55;3.15;;;;;;;;;;5071694;28;20377;-74
2023/07/15 09:19:52;;;;;;;8.15;3.25;;;;;;;;;;5072208;28;20029;-74
2023/07/15 09:22:19;;;;;;;11.05;3.53;;;;;;;;;;5074753;28;20035;-75
2023/07/15 09:24:45;;;;;;;8.25;3.03;;;;;;;;;;5076731;28;20035;-74
2023/07/15 09:27:11;;;;;;;12.55;2.80;;;;;;;;;;5072427;28;20062;-74
2023/07/15 09:29:37;;;;;;;5.85;2.42;;;;;;;;;;5071888;28;20108;-75
2023/07/15 09:32:03;;;;;;;5.68;2.50;;;;;;;;;;5071646;28;20021;-75
2023/07/15 09:34:29;;;;;;;8.88;2.65;;;;;;;;;;5071931;28;20078;-74
2023/07/15 09:36:55;;;;;;;10.38;3.40;;;;;;;;;;5072877;28;20098;-74
2023/07/15 09:39:22;;;;;;;7.30;2.45;;;;;;;;;;5071950;28;20020;-74
2023/07/15 09:42:00;;;;;;;11.77;3.22;;;;;;;;;;5071775;28;20017;-75
2023/07/15 09:44:37;;;;;;;10.50;5.22;;;;;;;;;;5071598;28;20048;-75
2023/07/15 09:47:04;;;;;;;6.57;3.75;;;;;;;;;;5071822;28;20020;-75
2023/07/15 09:49:31;;;;;;;9.95;2.30;;;;;;;;;;5071591;28;20032;-73
2023/07/15 09:51:58;;;;;;;6.90;3.08;;;;;;;;;;5071323;28;20519;-73
2023/07/15 09:54:25;;;;;;;12.05;2.67;;;;;;;;;;5072742;28;20052;-74
2023/07/15 09:56:53;;;;;;;9.25;2.47;;;;;;;;;;5074887;28;20025;-75
2023/07/15 09:59:22;;;;;;;18.15;2.65;;;;;;;;;;5073972;28;20036;-75
2023/07/15 10:01:49;;;;;;;10.38;2.75;;;;;;;;;;5074122;28;20024;-74
2023/07/15 10:04:24;;;;;;;8.07;2.40;;;;;;;;;;5071891;28;20074;-75
2023/07/15 10:06:53;;;;;;;10.98;4.00;;;;;;;;;;5072017;28;20024;-74
2023/07/15 10:09:20;;;;;;;12.38;3.42;;;;;;;;;;5071924;28;20183;-74
2023/07/15 10:11:46;;;;;;;9.32;2.60;;;;;;;;;;5072427;28;20509;-75
2023/07/15 10:14:13;;;;;;;3.78;2.17;;;;;;;;;;5074621;28;20052;-75
2023/07/15 10:16:40;;;;;;;4.88;2.88;;;;;;;;;;5073077;28;20029;-76
2023/07/15 10:19:26;;;;;;;10.27;2.63;;;;;;;;;;5075708;28;20024;-75
2023/07/15 10:21:58;;;;;;;9.68;2.95;;;;;;;;;;5074565;28;20021;-75
2023/07/15 10:24:26;;;;;;;6.10;2.35;;;;;;;;;;5073734;28;20025;-74
2023/07/15 10:26:53;;;;;;;10.15;3.00;;;;;;;;;;5073385;28;20433;-75
2023/07/15 10:29:23;;;;;;;8.25;2.25;;;;;;;;;;5075601;28;20035;-73
2023/07/15 10:32:11;;;;;;;6.45;2.80;;;;;;;;;;5076961;28;20025;-74
2023/07/15 10:34:40;;;;;;;9.98;2.40;;;;;;;;;;5075352;28;20074;-75
2023/07/15 10:37:07;;;;;;;8.55;2.50;;;;;;;;;;5075129;28;20108;-76
2023/07/15 10:39:33;;;;;;;8.00;2.15;;;;;;;;;;5075199;28;20017;-73
2023/07/15 10:42:07;;;;;;;8.68;2.38;;;;;;;;;;5067873;28;20104;-74
2023/07/15 10:44:38;;;;;;;10.65;2.15;;;;;;;;;;5069457;28;20043;-73
2023/07/15 10:47:05;;;;;;;8.98;2.08;;;;;;;;;;5064053;28;20028;-74
2023/07/15 10:49:31;;;;;;;5.78;2.15;;;;;;;;;;5066470;28;20090;-74
2023/07/15 10:51:57;;;;;;;7.68;2.20;;;;;;;;;;5070682;28;20035;-75
2023/07/15 10:54:24;;;;;;;6.63;2.20;;;;;;;;;;5069380;28;20043;-75
2023/07/15 10:56:50;;;;;;;11.18;2.53;;;;;;;;;;5058040;28;20039;-75
2023/07/15 10:59:17;;;;;;;9.52;2.08;;;;;;;;;;5060617;28;20021;-74
2023/07/15 11:01:46;;;;;;;6.82;2.35;;;;;;;;;;5066426;28;20078;-74
2023/07/15 11:04:12;;;;;;;7.78;2.78;;;;;;;;;;5065285;28;20020;-74
2023/07/15 11:06:38;;;;;;;9.80;2.30;;;;;;;;;;5060973;28;20024;-76
2023/07/15 11:09:21;;;;;;;16.20;6.10;;;;;;;;;;5060358;28;20025;-74
2023/07/15 11:11:47;;;;;;;8.52;2.58;;;;;;;;;;5069046;28;20084;-73
2023/07/15 11:14:19;;;;;;;3.45;2.13;;;;;;;;;;5066415;28;20032;-74
2023/07/15 11:16:45;;;;;;;6.13;2.67;;;;;;;;;;5074301;28;20060;-74
2023/07/15 11:19:15;;;;;;;4.13;2.20;;;;;;;;;;5065487;28;20048;-75
2023/07/15 11:21:42;;;;;;;7.85;1.88;;;;;;;;;;5058594;28;20063;-75
2023/07/15 11:24:08;;;;;;;7.38;2.05;;;;;;;;;;5065742;28;20051;-74
2023/07/15 11:26:35;;;;;;;7.93;2.15;;;;;;;;;;5070722;28;20025;-75
2023/07/15 11:29:02;;;;;;;7.55;2.25;;;;;;;;;;5060365;28;20062;-75
2023/07/15 11:31:28;;;;;;;7.95;2.40;;;;;;;;;;5067560;28;20044;-76
2023/07/15 11:33:57;;;;;;;11.85;2.83;;;;;;;;;;5076030;28;20106;-76
2023/07/15 11:36:23;;;;;;;7.28;2.33;;;;;;;;;;5074347;28;20082;-75
2023/07/15 11:38:49;;;;;;;6.45;2.28;;;;;;;;;;5074158;28;20021;-75
2023/07/15 11:41:15;;;;;;;4.00;2.25;;;;;;;;;;5076528;28;20442;-76
2023/07/15 11:43:41;;;;;;;6.20;2.20;;;;;;;;;;5076835;28;20028;-77
2023/07/15 11:46:07;;;;;;;14.07;2.70;;;;;;;;;;5075794;28;20381;-76
2023/07/15 11:48:36;;;;;;;15.82;2.60;;;;;;;;;;5073157;28;20036;-74
2023/07/15 11:51:08;;;;;;;6.85;2.05;;;;;;;;;;5073154;28;20048;-77
2023/07/15 11:53:35;;;;;;;5.68;1.88;;;;;;;;;;5072818;28;20039;-73
2023/07/15 11:56:02;;;;;;;4.32;2.10;;;;;;;;;;5073603;28;20371;-74
2023/07/15 11:58:49;;;;;;;6.85;2.28;;;;;;;;;;5071567;28;20028;-76
2023/07/15 12:01:16;;;;;;;14.25;9.95;;;;;;;;;;5071514;28;20552;-75
2023/07/15 12:03:43;;;;;;;11.15;2.92;;;;;;;;;;5072145;28;20024;-73
2023/07/15 12:06:17;;;;;;;4.45;2.05;;;;;;;;;;5075698;28;20358;-74
2023/07/15 12:09:02;;;;;;;2.92;1.90;;;;;;;;;;5052746;28;20111;-75
2023/07/15 12:11:28;;;;;;;7.18;2.20;;;;;;;;;;5054429;28;20080;-76
2023/07/15 12:13:54;;;;;;;4.68;2.40;;;;;;;;;;5074388;28;20040;-77
2023/07/15 12:16:23;;;;;;;8.95;2.08;;;;;;;;;;5074536;28;20098;-74
2023/07/15 12:18:50;;;;;;;5.40;1.70;;;;;;;;;;5054092;28;20387;-74
2023/07/15 12:21:16;;;;;;;4.68;1.83;;;;;;;;;;5056559;28;20025;-75
2023/07/15 12:23:43;;;;;;;9.65;2.53;;;;;;;;;;5054864;28;20029;-75
2023/07/15 12:26:09;;;;;;;5.72;1.92;;;;;;;;;;5057404;28;20439;-77
2023/07/15 12:28:35;;;;;;;7.90;2.30;;;;;;;;;;5054903;28;20021;-75
2023/07/15 12:31:01;;;;;;;9.95;3.22;;;;;;;;;;5060800;28;20052;-75
2023/07/15 12:33:28;;;;;;;12.35;2.30;;;;;;;;;;5057518;28;20053;-76
2023/07/15 12:35:54;;;;;;;8.52;2.75;;;;;;;;;;5054361;28;20037;-75
2023/07/15 12:38:20;;;;;;;5.22;1.90;;;;;;;;;;5054559;28;20021;-74
2023/07/15 12:40:46;;;;;;;4.63;2.20;;;;;;;;;;5053976;28;20056;-75
2023/07/15 12:43:12;;;;;;;7.03;2.83;;;;;;;;;;5052806;28;20029;-74
2023/07/15 12:45:38;;;;;;;3.88;1.73;;;;;;;;;;5053328;28;20033;-76
2023/07/15 12:48:05;;;;;;;8.18;2.42;;;;;;;;;;5057873;28;20054;-79
2023/07/15 12:50:30;;;;;;;3.88;2.30;;;;;;;;;;5059039;28;20099;-76
2023/07/15 12:52:56;;;;;;;10.93;1.98;;;;;;;;;;5055939;28;20033;-78
2023/07/15 12:55:22;;;;;;;12.05;2.17;;;;;;;;;;5065210;28;20062;-80
2023/07/15 12:57:49;;;;;;;11.95;2.10;;;;;;;;;;5065545;28;20021;-78
2023/07/15 13:00:15;;;;;;;19.17;2.65;;;;;;;;;;5070616;28;20051;-77
2023/07/15 13:02:41;;;;;;;7.85;1.77;;;;;;;;;;5064906;28;20386;-78
2023/07/15 13:05:08;;;;;;;7.57;2.00;;;;;;;;;;5058791;28;20104;-73
2023/07/15 13:07:34;;;;;;;9.38;2.17;;;;;;;;;;5062254;28;20024;-74
2023/07/15 13:10:00;;;;;;;6.40;2.20;;;;;;;;;;5072914;28;20501;-75
2023/07/15 13:12:26;;;;;;;5.65;1.75;;;;;;;;;;5072939;28;20029;-75
2023/07/15 13:14:52;;;;;;;7.97;2.20;;;;;;;;;;5072543;28;20428;-73
2023/07/15 13:17:18;;;;;;;7.93;2.10;;;;;;;;;;5072654;28;20375;-74
2023/07/15 13:19:44;;;;;;;8.55;2.25;;;;;;;;;;5072137;28;20104;-72
2023/07/15 13:22:10;;;;;;;4.95;1.90;;;;;;;;;;5071335;28;20032;-73
2023/07/15 13:24:36;;;;;;;12.20;1.90;;;;;;;;;;5072900;28;20059;-75
2023/07/15 13:27:02;;;;;;;4.47;2.10;;;;;;;;;;5073418;28;20440;-73
2023/07/15 13:29:28;;;;;;;3.03;1.80;;;;;;;;;;5074866;28;20052;-74
2023/07/15 13:31:54;;;;;;;10.38;2.17;;;;;;;;;;5071373;28;20056;-75
2023/07/15 13:34:20;;;;;;;11.73;2.55;;;;;;;;;;5072020;28;20482;-77
2023/07/15 13:36:46;;;;;;;8.93;2.13;;;;;;;;;;5072063;28;20114;-74
2023/07/15 13:39:33;;;;;;;5.38;2.15;;;;;;;;;;5072080;28;20043;-74
2023/07/15 13:41:59;;;;;;;4.28;2.00;;;;;;;;;;5067577;28;20041;-74
2023/07/15 13:44:25;;;;;;;7.20;2.08;;;;;;;;;;5072428;28;20047;-75
2023/07/15 13:46:51;;;;;;;3.25;1.77;;;;;;;;;;5072315;28;20024;-75
2023/07/15 13:49:17;;;;;;;4.63;1.77;;;;;;;;;;5072317;28;20516;-75
2023/07/15 13:51:43;;;;;;;6.68;1.70;;;;;;;;;;5072402;28;20130;-75
2023/07/15 13:54:09;;;;;;;11.85;1.83;;;;;;;;;;5071765;28;20494;-75
2023/07/15 13:56:35;;;;;;;8.75;2.00;;;;;;;;;;5072046;28;20040;-74
2023/07/15 13:59:01;;;;;;;7.15;2.03;;;;;;;;;;5072114;28;20025;-75
2023/07/15 14:01:27;;;;;;;4.68;1.98;;;;;;;;;;5071058;28;20028;-74
2023/07/15 14:03:53;;;;;;;11.38;1.90;;;;;;;;;;5070222;28;20025;-77
2023/07/15 14:06:20;;;;;;;6.57;1.80;;;;;;;;;;5072503;28;20108;-76
2023/07/15 14:08:46;;;;;;;8.55;2.00;;;;;;;;;;5077820;28;20020;-74
2023/07/15 14:11:12;;;;;;;7.10;1.90;;;;;;;;;;5075342;28;20494;-76
2023/07/15 14:13:38;;;;;;;4.38;1.88;;;;;;;;;;5077151;28;20038;-77
2023/07/15 14:16:04;;;;;;;7.80;1.80;;;;;;;;;;5076963;28;20031;-78
2023/07/15 14:18:30;;;;;;;5.93;1.60;;;;;;;;;;5077277;28;20021;-76
2023/07/15 14:20:56;;;;;;;9.43;1.63;;;;;;;;;;5077548;28;20021;-78
2023/07/15 14:23:22;;;;;;;5.13;1.75;;;;;;;;;;5077153;28;20031;-76
2023/07/15 14:25:48;;;;;;;3.30;1.60;;;;;;;;;;5079271;28;20031;-77
2023/07/15 14:28:14;;;;;;;6.38;1.50;;;;;;;;;;5081617;28;20024;-79
2023/07/15 14:30:40;;;;;;;5.70;1.63;;;;;;;;;;5079348;28;20040;-76
2023/07/15 14:33:06;;;;;;;3.42;1.75;;;;;;;;;;5075657;28;20055;-76
2023/07/15 14:35:32;;;;;;;2.20;1.48;;;;;;;;;;5075659;28;20405;-75
2023/07/15 14:37:58;;;;;;;9.18;1.88;;;;;;;;;;5075153;28;20025;-77